Terminal Aerodrome Forecast
Issued by NWS Shreveport, LA

Home | Current Version | Previous Version | Text Only | Print | Product List | Glossary On
Versions: 1 2 3 4 5 6 7 8 9 10 11 12 13 14 15 16 17 18
000
FTUS44 KSHV 022300 RRA
TAFELD
TAF
KELD 022347Z 0300/0324 16005KT P6SM SCT007 OVC250
      TEMPO 0300/0302 BKN007
     FM030200 17003KT P6SM OVC250
     FM030800 00000KT 4SM BR BKN250
      TEMPO 0310/0314 2SM BR BKN002
     FM031400 21004KT P6SM SCT008 BKN015
     FM031600 21005KT P6SM SCT035 SCT250=

USA.gov is the U.S. government's official web portal to all federal, state and local government web resources and services.